sensor_id;sensor_type;location;lat;lon;timestamp;temperature;humidity
50067;DHT22;35952;52.524;13.340;2023-07-29T00:00:46;19.00;99.90
50067;DHT22;35952;52.524;13.340;2023-07-29T00:03:12;19.00;99.90
50067;DHT22;35952;52.524;13.340;2023-07-29T00:05:37;18.90;99.90
50067;DHT22;35952;52.524;13.340;2023-07-29T00:08:03;18.90;99.90
50067;DHT22;35952;52.524;13.340;2023-07-29T00:10:31;18.80;99.90
50067;DHT22;35952;52.524;13.340;2023-07-29T00:12:57;18.80;99.90
50067;DHT22;35952;52.524;13.340;2023-07-29T00:15:22;18.80;99.90
50067;DHT22;35952;52.524;13.340;2023-07-29T00:17:47;18.80;99.90
50067;DHT22;35952;52.524;13.340;2023-07-29T00:20:13;18.80;99.90
50067;DHT22;35952;52.524;13.340;2023-07-29T00:22:38;18.70;99.90
50067;DHT22;35952;52.524;13.340;2023-07-29T00:25:04;18.60;99.90
50067;DHT22;35952;52.524;13.340;2023-07-29T00:27:30;18.60;99.90
50067;DHT22;35952;52.524;13.340;2023-07-29T00:29:55;18.50;99.90
50067;DHT22;35952;52.524;13.340;2023-07-29T00:32:21;18.50;99.90
50067;DHT22;35952;52.524;13.340;2023-07-29T00:34:46;18.50;99.90
50067;DHT22;35952;52.524;13.340;2023-07-29T00:37:12;18.40;99.90
50067;DHT22;35952;52.524;13.340;2023-07-29T00:39:37;18.30;99.90
50067;DHT22;35952;52.524;13.340;2023-07-29T00:42:04;18.40;99.90
50067;DHT22;35952;52.524;13.340;2023-07-29T00:44:29;18.40;99.90
50067;DHT22;35952;52.524;13.340;2023-07-29T00:46:57;18.50;99.90
50067;DHT22;35952;52.524;13.340;2023-07-29T00:49:23;18.50;99.90
50067;DHT22;35952;52.524;13.340;2023-07-29T00:51:48;18.50;99.90
50067;DHT22;35952;52.524;13.340;2023-07-29T00:54:14;18.50;99.90
50067;DHT22;35952;52.524;13.340;2023-07-29T00:56:40;18.30;99.90
50067;DHT22;35952;52.524;13.340;2023-07-29T00:59:06;18.30;99.90
50067;DHT22;35952;52.524;13.340;2023-07-29T01:01:32;18.20;99.90
50067;DHT22;35952;52.524;13.340;2023-07-29T01:03:57;18.30;99.90
50067;DHT22;35952;52.524;13.340;2023-07-29T01:07:44;18.20;99.90
50067;DHT22;35952;52.524;13.340;2023-07-29T01:12:22;18.20;99.90
50067;DHT22;35952;52.524;13.340;2023-07-29T01:15:06;18.30;99.90
50067;DHT22;35952;52.524;13.340;2023-07-29T01:17:42;18.30;99.90
50067;DHT22;35952;52.524;13.340;2023-07-29T01:20:09;18.30;99.90
50067;DHT22;35952;52.524;13.340;2023-07-29T01:22:37;18.40;99.90
50067;DHT22;35952;52.524;13.340;2023-07-29T01:25:03;18.40;99.90
50067;DHT22;35952;52.524;13.340;2023-07-29T01:27:29;18.30;99.90
50067;DHT22;35952;52.524;13.340;2023-07-29T01:29:56;18.20;99.90
50067;DHT22;35952;52.524;13.340;2023-07-29T01:38:03;18.30;99.90
50067;DHT22;35952;52.524;13.340;2023-07-29T01:40:29;18.30;99.90
50067;DHT22;35952;52.524;13.340;2023-07-29T01:42:56;18.30;99.90
50067;DHT22;35952;52.524;13.340;2023-07-29T01:45:25;18.30;99.90
50067;DHT22;35952;52.524;13.340;2023-07-29T01:47:51;18.30;99.90
50067;DHT22;35952;52.524;13.340;2023-07-29T01:50:17;18.30;99.90
50067;DHT22;35952;52.524;13.340;2023-07-29T01:52:42;18.30;99.90
50067;DHT22;35952;52.524;13.340;2023-07-29T01:55:08;18.20;99.90
50067;DHT22;35952;52.524;13.340;2023-07-29T01:57:33;18.20;99.90
50067;DHT22;35952;52.524;13.340;2023-07-29T01:59:59;18.10;99.90
50067;DHT22;35952;52.524;13.340;2023-07-29T02:02:24;18.10;99.90
50067;DHT22;35952;52.524;13.340;2023-07-29T02:04:50;18.10;99.90
50067;DHT22;35952;52.524;13.340;2023-07-29T02:07:18;18.00;99.90
50067;DHT22;35952;52.524;13.340;2023-07-29T02:09:44;17.90;99.90
50067;DHT22;35952;52.524;13.340;2023-07-29T02:12:10;18.00;99.90
50067;DHT22;35952;52.524;13.340;2023-07-29T02:14:35;17.90;99.90
50067;DHT22;35952;52.524;13.340;2023-07-29T02:17:01;17.80;99.90
50067;DHT22;35952;52.524;13.340;2023-07-29T02:19:26;17.70;99.90
50067;DHT22;35952;52.524;13.340;2023-07-29T02:21:52;17.70;99.90
50067;DHT22;35952;52.524;13.340;2023-07-29T02:24:17;17.60;99.90
50067;DHT22;35952;52.524;13.340;2023-07-29T02:26:43;17.60;99.90
50067;DHT22;35952;52.524;13.340;2023-07-29T02:29:08;17.60;99.90
50067;DHT22;35952;52.524;13.340;2023-07-29T02:31:34;17.50;99.90
50067;DHT22;35952;52.524;13.340;2023-07-29T02:34:00;17.50;99.90
50067;DHT22;35952;52.524;13.340;2023-07-29T02:36:25;17.60;99.90
50067;DHT22;35952;52.524;13.340;2023-07-29T02:38:51;17.60;99.90
50067;DHT22;35952;52.524;13.340;2023-07-29T02:41:16;17.60;99.90
50067;DHT22;35952;52.524;13.340;2023-07-29T02:43:43;17.70;99.90
50067;DHT22;35952;52.524;13.340;2023-07-29T02:46:09;17.70;99.90
50067;DHT22;35952;52.524;13.340;2023-07-29T02:48:34;17.70;99.90
50067;DHT22;35952;52.524;13.340;2023-07-29T02:51:00;17.70;99.90
50067;DHT22;35952;52.524;13.340;2023-07-29T02:53:25;17.80;99.90
50067;DHT22;35952;52.524;13.340;2023-07-29T02:55:51;17.80;99.90
50067;DHT22;35952;52.524;13.340;2023-07-29T02:58:16;17.80;99.90
50067;DHT22;35952;52.524;13.340;2023-07-29T03:00:42;17.70;99.90
50067;DHT22;35952;52.524;13.340;2023-07-29T03:03:08;17.70;99.90
50067;DHT22;35952;52.524;13.340;2023-07-29T03:05:34;17.70;99.90
50067;DHT22;35952;52.524;13.340;2023-07-29T03:08:00;17.80;99.90
50067;DHT22;35952;52.524;13.340;2023-07-29T03:10:25;17.90;99.90
50067;DHT22;35952;52.524;13.340;2023-07-29T03:12:51;17.80;99.90
50067;DHT22;35952;52.524;13.340;2023-07-29T03:15:18;17.70;99.90
50067;DHT22;35952;52.524;13.340;2023-07-29T03:17:44;17.80;99.90
50067;DHT22;35952;52.524;13.340;2023-07-29T03:20:09;17.70;99.90
50067;DHT22;35952;52.524;13.340;2023-07-29T03:22:35;17.70;99.90
50067;DHT22;35952;52.524;13.340;2023-07-29T03:25:00;17.70;99.90
50067;DHT22;35952;52.524;13.340;2023-07-29T03:27:26;17.70;99.90
50067;DHT22;35952;52.524;13.340;2023-07-29T03:29:51;17.70;99.90
50067;DHT22;35952;52.524;13.340;2023-07-29T03:32:17;17.70;99.90
50067;DHT22;35952;52.524;13.340;2023-07-29T03:34:42;17.80;99.90
50067;DHT22;35952;52.524;13.340;2023-07-29T03:37:08;17.80;99.90
50067;DHT22;35952;52.524;13.340;2023-07-29T03:39:34;17.70;99.90
50067;DHT22;35952;52.524;13.340;2023-07-29T03:41:59;17.70;99.90
50067;DHT22;35952;52.524;13.340;2023-07-29T03:44:25;17.60;99.90
50067;DHT22;35952;52.524;13.340;2023-07-29T03:46:51;17.60;99.90
50067;DHT22;35952;52.524;13.340;2023-07-29T03:49:16;17.60;99.90
50067;DHT22;35952;52.524;13.340;2023-07-29T03:51:42;17.60;99.90
50067;DHT22;35952;52.524;13.340;2023-07-29T03:54:07;17.60;99.90
50067;DHT22;35952;52.524;13.340;2023-07-29T03:56:33;17.60;99.90
50067;DHT22;35952;52.524;13.340;2023-07-29T03:59:04;17.60;99.90
50067;DHT22;35952;52.524;13.340;2023-07-29T04:01:30;17.70;99.90
50067;DHT22;35952;52.524;13.340;2023-07-29T04:03:56;17.80;99.90
50067;DHT22;35952;52.524;13.340;2023-07-29T04:06:21;17.70;99.90
50067;DHT22;35952;52.524;13.340;2023-07-29T04:08:48;17.80;99.90
50067;DHT22;35952;52.524;13.340;2023-07-29T04:11:13;17.80;99.90
50067;DHT22;35952;52.524;13.340;2023-07-29T04:13:39;17.80;99.90
50067;DHT22;35952;52.524;13.340;2023-07-29T04:16:04;17.80;99.90
50067;DHT22;35952;52.524;13.340;2023-07-29T04:18:30;17.80;99.90
50067;DHT22;35952;52.524;13.340;2023-07-29T04:20:55;17.80;99.90
50067;DHT22;35952;52.524;13.340;2023-07-29T04:23:21;17.80;99.90
50067;DHT22;35952;52.524;13.340;2023-07-29T04:25:46;17.90;99.90
50067;DHT22;35952;52.524;13.340;2023-07-29T04:28:12;18.00;99.90
50067;DHT22;35952;52.524;13.340;2023-07-29T04:30:37;18.00;99.90
50067;DHT22;35952;52.524;13.340;2023-07-29T04:33:03;18.10;99.90
50067;DHT22;35952;52.524;13.340;2023-07-29T04:35:29;18.10;99.90
50067;DHT22;35952;52.524;13.340;2023-07-29T04:37:54;18.20;99.90
50067;DHT22;35952;52.524;13.340;2023-07-29T04:40:20;18.30;99.90
50067;DHT22;35952;52.524;13.340;2023-07-29T04:42:45;18.40;99.90
50067;DHT22;35952;52.524;13.340;2023-07-29T04:45:11;18.50;99.90
50067;DHT22;35952;52.524;13.340;2023-07-29T04:47:36;18.60;99.90
50067;DHT22;35952;52.524;13.340;2023-07-29T04:50:02;18.60;99.90
50067;DHT22;35952;52.524;13.340;2023-07-29T04:52:27;18.60;99.90
50067;DHT22;35952;52.524;13.340;2023-07-29T04:54:53;18.70;99.90
50067;DHT22;35952;52.524;13.340;2023-07-29T04:57:18;18.90;99.90
50067;DHT22;35952;52.524;13.340;2023-07-29T04:59:44;19.00;99.90
50067;DHT22;35952;52.524;13.340;2023-07-29T05:02:09;19.30;99.90
50067;DHT22;35952;52.524;13.340;2023-07-29T05:04:35;19.40;99.90
50067;DHT22;35952;52.524;13.340;2023-07-29T05:07:01;19.50;99.90
50067;DHT22;35952;52.524;13.340;2023-07-29T05:09:26;19.60;99.90
50067;DHT22;35952;52.524;13.340;2023-07-29T05:11:52;19.90;99.90
50067;DHT22;35952;52.524;13.340;2023-07-29T05:14:17;20.10;99.90
50067;DHT22;35952;52.524;13.340;2023-07-29T05:16:43;20.00;99.90
50067;DHT22;35952;52.524;13.340;2023-07-29T05:19:09;19.90;99.90
50067;DHT22;35952;52.524;13.340;2023-07-29T05:21:35;20.00;99.90
50067;DHT22;35952;52.524;13.340;2023-07-29T05:24:00;20.20;99.90
50067;DHT22;35952;52.524;13.340;2023-07-29T05:26:26;20.40;99.90
50067;DHT22;35952;52.524;13.340;2023-07-29T05:28:54;20.50;99.90
50067;DHT22;35952;52.524;13.340;2023-07-29T05:31:19;20.60;99.90
50067;DHT22;35952;52.524;13.340;2023-07-29T05:33:45;20.90;99.90
50067;DHT22;35952;52.524;13.340;2023-07-29T05:36:10;21.00;99.90
50067;DHT22;35952;52.524;13.340;2023-07-29T05:38:36;20.80;99.90
50067;DHT22;35952;52.524;13.340;2023-07-29T05:41:02;20.60;99.90
50067;DHT22;35952;52.524;13.340;2023-07-29T05:43:27;20.40;99.90
50067;DHT22;35952;52.524;13.340;2023-07-29T05:45:53;20.50;99.90
50067;DHT22;35952;52.524;13.340;2023-07-29T05:48:20;20.90;99.90
50067;DHT22;35952;52.524;13.340;2023-07-29T05:50:45;21.20;99.90
50067;DHT22;35952;52.524;13.340;2023-07-29T05:53:11;22.40;99.90
50067;DHT22;35952;52.524;13.340;2023-07-29T05:55:36;23.80;99.90
50067;DHT22;35952;52.524;13.340;2023-07-29T05:58:01;24.60;99.90
50067;DHT22;35952;52.524;13.340;2023-07-29T06:00:27;25.90;99.90
50067;DHT22;35952;52.524;13.340;2023-07-29T06:02:52;26.50;99.90
50067;DHT22;35952;52.524;13.340;2023-07-29T06:05:18;27.20;99.90
50067;DHT22;35952;52.524;13.340;2023-07-29T06:07:43;27.80;99.90
50067;DHT22;35952;52.524;13.340;2023-07-29T06:10:12;28.10;99.90
50067;DHT22;35952;52.524;13.340;2023-07-29T06:12:38;28.30;99.90
50067;DHT22;35952;52.524;13.340;2023-07-29T06:15:04;28.70;99.90
50067;DHT22;35952;52.524;13.340;2023-07-29T06:17:30;29.00;99.90
50067;DHT22;35952;52.524;13.340;2023-07-29T06:19:55;29.30;99.90
50067;DHT22;35952;52.524;13.340;2023-07-29T06:22:21;28.80;99.90
50067;DHT22;35952;52.524;13.340;2023-07-29T06:24:46;29.30;99.90
50067;DHT22;35952;52.524;13.340;2023-07-29T06:27:12;29.70;99.90
50067;DHT22;35952;52.524;13.340;2023-07-29T06:29:37;29.60;99.90
50067;DHT22;35952;52.524;13.340;2023-07-29T06:32:03;30.30;99.90
50067;DHT22;35952;52.524;13.340;2023-07-29T06:34:29;29.80;99.90
50067;DHT22;35952;52.524;13.340;2023-07-29T06:36:54;30.50;99.90
50067;DHT22;35952;52.524;13.340;2023-07-29T06:39:20;30.30;99.90
50067;DHT22;35952;52.524;13.340;2023-07-29T06:41:45;30.70;99.90
50067;DHT22;35952;52.524;13.340;2023-07-29T06:44:11;30.90;99.60
50067;DHT22;35952;52.524;13.340;2023-07-29T06:46:36;30.80;99.20
50067;DHT22;35952;52.524;13.340;2023-07-29T06:49:02;30.30;99.60
50067;DHT22;35952;52.524;13.340;2023-07-29T06:51:27;29.70;99.90
50067;DHT22;35952;52.524;13.340;2023-07-29T06:53:57;29.40;99.90
50067;DHT22;35952;52.524;13.340;2023-07-29T06:56:23;28.70;99.90
50067;DHT22;35952;52.524;13.340;2023-07-29T06:58:48;28.40;99.90
50067;DHT22;35952;52.524;13.340;2023-07-29T07:01:14;28.00;99.90
50067;DHT22;35952;52.524;13.340;2023-07-29T07:03:39;27.50;99.90
50067;DHT22;35952;52.524;13.340;2023-07-29T07:06:05;26.90;99.90
50067;DHT22;35952;52.524;13.340;2023-07-29T07:08:31;26.20;99.90
50067;DHT22;35952;52.524;13.340;2023-07-29T07:10:56;25.50;99.90
50067;DHT22;35952;52.524;13.340;2023-07-29T07:13:22;24.80;99.90
50067;DHT22;35952;52.524;13.340;2023-07-29T07:15:47;24.50;99.90
50067;DHT22;35952;52.524;13.340;2023-07-29T07:18:13;24.30;99.90
50067;DHT22;35952;52.524;13.340;2023-07-29T07:20:38;24.10;99.90
50067;DHT22;35952;52.524;13.340;2023-07-29T07:23:04;23.70;99.90
50067;DHT22;35952;52.524;13.340;2023-07-29T07:25:31;23.40;99.90
50067;DHT22;35952;52.524;13.340;2023-07-29T07:27:56;23.10;99.90
50067;DHT22;35952;52.524;13.340;2023-07-29T07:30:22;22.90;99.90
50067;DHT22;35952;52.524;13.340;2023-07-29T07:32:47;22.80;99.90
50067;DHT22;35952;52.524;13.340;2023-07-29T07:35:13;23.00;99.90
50067;DHT22;35952;52.524;13.340;2023-07-29T07:37:39;23.40;99.90
50067;DHT22;35952;52.524;13.340;2023-07-29T07:40:04;23.50;99.90
50067;DHT22;35952;52.524;13.340;2023-07-29T07:42:30;23.50;99.90
50067;DHT22;35952;52.524;13.340;2023-07-29T07:44:56;23.60;99.90
50067;DHT22;35952;52.524;13.340;2023-07-29T07:47:21;23.50;99.90
50067;DHT22;35952;52.524;13.340;2023-07-29T07:49:47;23.60;99.90
50067;DHT22;35952;52.524;13.340;2023-07-29T07:52:14;23.60;99.90
50067;DHT22;35952;52.524;13.340;2023-07-29T07:54:40;23.90;99.90
50067;DHT22;35952;52.524;13.340;2023-07-29T07:57:05;24.30;99.90
50067;DHT22;35952;52.524;13.340;2023-07-29T07:59:31;24.40;99.90
50067;DHT22;35952;52.524;13.340;2023-07-29T08:01:56;24.80;99.90
50067;DHT22;35952;52.524;13.340;2023-07-29T08:04:22;24.90;99.90
50067;DHT22;35952;52.524;13.340;2023-07-29T08:06:47;24.60;99.90
50067;DHT22;35952;52.524;13.340;2023-07-29T08:09:13;24.90;99.90
50067;DHT22;35952;52.524;13.340;2023-07-29T08:11:38;24.60;99.90
50067;DHT22;35952;52.524;13.340;2023-07-29T08:14:04;24.80;99.90
50067;DHT22;35952;52.524;13.340;2023-07-29T08:16:29;24.70;99.90
50067;DHT22;35952;52.524;13.340;2023-07-29T08:18:55;24.70;99.90
50067;DHT22;35952;52.524;13.340;2023-07-29T08:21:20;24.60;99.90
50067;DHT22;35952;52.524;13.340;2023-07-29T08:23:46;24.10;99.90
50067;DHT22;35952;52.524;13.340;2023-07-29T08:26:11;24.00;99.90
50067;DHT22;35952;52.524;13.340;2023-07-29T08:28:39;23.90;99.90
50067;DHT22;35952;52.524;13.340;2023-07-29T08:31:05;23.80;99.90
50067;DHT22;35952;52.524;13.340;2023-07-29T08:33:32;23.80;99.90
50067;DHT22;35952;52.524;13.340;2023-07-29T08:36:01;23.80;99.90
50067;DHT22;35952;52.524;13.340;2023-07-29T08:38:27;23.60;99.90
50067;DHT22;35952;52.524;13.340;2023-07-29T08:40:58;23.50;99.90
50067;DHT22;35952;52.524;13.340;2023-07-29T08:43:31;23.50;99.90
50067;DHT22;35952;52.524;13.340;2023-07-29T08:45:58;23.50;99.90
50067;DHT22;35952;52.524;13.340;2023-07-29T08:48:30;23.30;99.90
50067;DHT22;35952;52.524;13.340;2023-07-29T08:50:58;23.30;99.90
50067;DHT22;35952;52.524;13.340;2023-07-29T08:53:24;23.30;99.90
50067;DHT22;35952;52.524;13.340;2023-07-29T08:55:50;23.20;99.90
50067;DHT22;35952;52.524;13.340;2023-07-29T08:58:16;23.20;99.90
50067;DHT22;35952;52.524;13.340;2023-07-29T09:00:42;23.20;99.90
50067;DHT22;35952;52.524;13.340;2023-07-29T09:03:08;23.20;99.90
50067;DHT22;35952;52.524;13.340;2023-07-29T09:05:34;23.20;99.90
50067;DHT22;35952;52.524;13.340;2023-07-29T09:08:02;23.20;99.90
50067;DHT22;35952;52.524;13.340;2023-07-29T09:10:27;23.10;99.90
50067;DHT22;35952;52.524;13.340;2023-07-29T09:12:53;23.20;99.90
50067;DHT22;35952;52.524;13.340;2023-07-29T09:15:29;23.40;99.90
50067;DHT22;35952;52.524;13.340;2023-07-29T09:17:56;23.60;99.90
50067;DHT22;35952;52.524;13.340;2023-07-29T09:20:26;23.30;99.90
50067;DHT22;35952;52.524;13.340;2023-07-29T09:22:58;23.50;99.90
50067;DHT22;35952;52.524;13.340;2023-07-29T09:25:29;23.60;99.90
50067;DHT22;35952;52.524;13.340;2023-07-29T09:28:01;23.80;99.90
50067;DHT22;35952;52.524;13.340;2023-07-29T09:30:27;23.90;99.90
50067;DHT22;35952;52.524;13.340;2023-07-29T09:32:55;23.90;99.90
50067;DHT22;35952;52.524;13.340;2023-07-29T09:35:22;23.90;99.90
50067;DHT22;35952;52.524;13.340;2023-07-29T09:37:47;24.10;99.90
50067;DHT22;35952;52.524;13.340;2023-07-29T09:40:17;24.30;99.90
50067;DHT22;35952;52.524;13.340;2023-07-29T09:42:54;24.40;99.90
50067;DHT22;35952;52.524;13.340;2023-07-29T09:45:21;23.80;99.90
50067;DHT22;35952;52.524;13.340;2023-07-29T09:47:47;24.00;99.90
50067;DHT22;35952;52.524;13.340;2023-07-29T09:50:13;24.00;99.90
50067;DHT22;35952;52.524;13.340;2023-07-29T09:52:38;24.00;99.90
50067;DHT22;35952;52.524;13.340;2023-07-29T09:55:04;24.00;99.90
50067;DHT22;35952;52.524;13.340;2023-07-29T09:57:31;24.20;99.90
50067;DHT22;35952;52.524;13.340;2023-07-29T09:59:57;24.20;99.90
50067;DHT22;35952;52.524;13.340;2023-07-29T10:02:23;24.40;99.90
50067;DHT22;35952;52.524;13.340;2023-07-29T10:04:52;24.60;99.90
50067;DHT22;35952;52.524;13.340;2023-07-29T10:07:18;24.80;99.90
50067;DHT22;35952;52.524;13.340;2023-07-29T10:09:45;24.80;99.90
50067;DHT22;35952;52.524;13.340;2023-07-29T10:12:11;24.70;99.90
50067;DHT22;35952;52.524;13.340;2023-07-29T10:14:38;24.70;99.90
50067;DHT22;35952;52.524;13.340;2023-07-29T10:17:05;24.90;99.90
50067;DHT22;35952;52.524;13.340;2023-07-29T10:19:31;25.00;99.90
50067;DHT22;35952;52.524;13.340;2023-07-29T10:21:59;24.80;99.90
50067;DHT22;35952;52.524;13.340;2023-07-29T10:24:30;24.40;99.90
50067;DHT22;35952;52.524;13.340;2023-07-29T10:27:00;24.40;99.90
50067;DHT22;35952;52.524;13.340;2023-07-29T10:29:31;24.30;99.90
50067;DHT22;35952;52.524;13.340;2023-07-29T10:31:57;24.10;99.90
50067;DHT22;35952;52.524;13.340;2023-07-29T10:34:26;24.30;99.90
50067;DHT22;35952;52.524;13.340;2023-07-29T10:36:52;24.40;99.90
50067;DHT22;35952;52.524;13.340;2023-07-29T10:39:18;24.50;99.90
50067;DHT22;35952;52.524;13.340;2023-07-29T10:47:11;24.70;99.90
50067;DHT22;35952;52.524;13.340;2023-07-29T10:49:40;24.60;99.90
50067;DHT22;35952;52.524;13.340;2023-07-29T10:52:05;24.60;99.90
50067;DHT22;35952;52.524;13.340;2023-07-29T10:54:42;24.40;99.90
50067;DHT22;35952;52.524;13.340;2023-07-29T10:57:12;24.30;99.90
50067;DHT22;35952;52.524;13.340;2023-07-29T10:59:37;24.20;99.90
50067;DHT22;35952;52.524;13.340;2023-07-29T11:02:12;24.10;99.90
50067;DHT22;35952;52.524;13.340;2023-07-29T11:04:50;24.20;99.90
50067;DHT22;35952;52.524;13.340;2023-07-29T11:12:45;23.80;99.90
50067;DHT22;35952;52.524;13.340;2023-07-29T11:20:08;21.50;99.90
50067;DHT22;35952;52.524;13.340;2023-07-29T11:22:34;20.70;99.90
50067;DHT22;35952;52.524;13.340;2023-07-29T11:25:00;20.10;99.90
50067;DHT22;35952;52.524;13.340;2023-07-29T11:27:25;19.80;99.90
50067;DHT22;35952;52.524;13.340;2023-07-29T11:30:03;19.50;99.90
50067;DHT22;35952;52.524;13.340;2023-07-29T11:32:30;19.50;99.90
50067;DHT22;35952;52.524;13.340;2023-07-29T11:34:57;19.30;99.90
50067;DHT22;35952;52.524;13.340;2023-07-29T11:37:22;19.30;99.90
50067;DHT22;35952;52.524;13.340;2023-07-29T11:39:48;19.30;99.90
50067;DHT22;35952;52.524;13.340;2023-07-29T11:42:14;19.40;99.90
50067;DHT22;35952;52.524;13.340;2023-07-29T11:44:40;19.50;99.90
50067;DHT22;35952;52.524;13.340;2023-07-29T11:47:10;19.50;99.90
50067;DHT22;35952;52.524;13.340;2023-07-29T11:49:38;19.60;99.90
50067;DHT22;35952;52.524;13.340;2023-07-29T11:52:06;19.70;99.90
50067;DHT22;35952;52.524;13.340;2023-07-29T11:54:33;19.80;99.90
50067;DHT22;35952;52.524;13.340;2023-07-29T11:56:59;19.80;99.90
50067;DHT22;35952;52.524;13.340;2023-07-29T11:59:25;19.80;99.90
50067;DHT22;35952;52.524;13.340;2023-07-29T12:01:53;19.80;99.90
50067;DHT22;35952;52.524;13.340;2023-07-29T12:04:19;19.90;99.90
50067;DHT22;35952;52.524;13.340;2023-07-29T12:06:45;19.90;99.90
50067;DHT22;35952;52.524;13.340;2023-07-29T12:09:10;20.00;99.90
50067;DHT22;35952;52.524;13.340;2023-07-29T12:11:36;20.00;99.90
50067;DHT22;35952;52.524;13.340;2023-07-29T12:14:02;19.90;99.90
50067;DHT22;35952;52.524;13.340;2023-07-29T12:16:27;19.90;99.90
50067;DHT22;35952;52.524;13.340;2023-07-29T12:19:00;20.00;99.90
50067;DHT22;35952;52.524;13.340;2023-07-29T12:21:26;19.90;99.90
50067;DHT22;35952;52.524;13.340;2023-07-29T12:23:51;19.90;99.90
50067;DHT22;35952;52.524;13.340;2023-07-29T12:26:17;19.90;99.90
50067;DHT22;35952;52.524;13.340;2023-07-29T12:28:46;20.00;99.90
50067;DHT22;35952;52.524;13.340;2023-07-29T12:31:12;20.10;99.90
50067;DHT22;35952;52.524;13.340;2023-07-29T12:33:37;20.10;99.90
50067;DHT22;35952;52.524;13.340;2023-07-29T12:36:05;20.20;99.90
50067;DHT22;35952;52.524;13.340;2023-07-29T12:38:31;20.30;99.90
50067;DHT22;35952;52.524;13.340;2023-07-29T12:40:56;20.50;99.90
50067;DHT22;35952;52.524;13.340;2023-07-29T12:43:22;20.70;99.90
50067;DHT22;35952;52.524;13.340;2023-07-29T12:45:50;20.80;99.90
50067;DHT22;35952;52.524;13.340;2023-07-29T12:48:16;21.00;99.90
50067;DHT22;35952;52.524;13.340;2023-07-29T12:50:42;21.10;99.90
50067;DHT22;35952;52.524;13.340;2023-07-29T12:53:08;21.40;99.90
50067;DHT22;35952;52.524;13.340;2023-07-29T12:55:35;21.60;99.90
50067;DHT22;35952;52.524;13.340;2023-07-29T12:58:01;21.70;99.90
50067;DHT22;35952;52.524;13.340;2023-07-29T13:00:27;21.90;99.90
50067;DHT22;35952;52.524;13.340;2023-07-29T13:02:52;22.10;99.90
50067;DHT22;35952;52.524;13.340;2023-07-29T13:05:18;22.10;99.90
50067;DHT22;35952;52.524;13.340;2023-07-29T13:07:43;22.10;99.90
50067;DHT22;35952;52.524;13.340;2023-07-29T13:10:09;22.20;99.90
50067;DHT22;35952;52.524;13.340;2023-07-29T13:12:35;22.20;99.90
50067;DHT22;35952;52.524;13.340;2023-07-29T13:15:01;22.20;99.90
50067;DHT22;35952;52.524;13.340;2023-07-29T13:17:26;22.10;99.90
50067;DHT22;35952;52.524;13.340;2023-07-29T13:19:52;22.00;99.90
50067;DHT22;35952;52.524;13.340;2023-07-29T13:22:19;21.90;99.90
50067;DHT22;35952;52.524;13.340;2023-07-29T13:24:44;22.10;99.90
50067;DHT22;35952;52.524;13.340;2023-07-29T13:27:10;22.20;99.90
50067;DHT22;35952;52.524;13.340;2023-07-29T13:29:35;22.20;99.90
50067;DHT22;35952;52.524;13.340;2023-07-29T13:32:01;22.40;99.90
50067;DHT22;35952;52.524;13.340;2023-07-29T13:34:26;22.60;99.90
50067;DHT22;35952;52.524;13.340;2023-07-29T13:36:52;22.70;99.90
50067;DHT22;35952;52.524;13.340;2023-07-29T13:39:18;22.90;99.90
50067;DHT22;35952;52.524;13.340;2023-07-29T13:41:43;23.10;99.90
50067;DHT22;35952;52.524;13.340;2023-07-29T13:44:09;23.30;99.90
50067;DHT22;35952;52.524;13.340;2023-07-29T13:46:34;23.40;99.90
50067;DHT22;35952;52.524;13.340;2023-07-29T13:49:00;23.30;99.90
50067;DHT22;35952;52.524;13.340;2023-07-29T13:51:26;23.20;99.90
50067;DHT22;35952;52.524;13.340;2023-07-29T13:53:52;23.10;99.90
50067;DHT22;35952;52.524;13.340;2023-07-29T13:56:17;23.20;99.90
50067;DHT22;35952;52.524;13.340;2023-07-29T13:58:43;23.10;99.90
50067;DHT22;35952;52.524;13.340;2023-07-29T14:01:08;23.20;99.90
50067;DHT22;35952;52.524;13.340;2023-07-29T14:03:34;23.20;99.90
50067;DHT22;35952;52.524;13.340;2023-07-29T14:05:59;23.30;99.90
50067;DHT22;35952;52.524;13.340;2023-07-29T14:08:25;23.40;99.90
50067;DHT22;35952;52.524;13.340;2023-07-29T14:10:50;23.60;99.90
50067;DHT22;35952;52.524;13.340;2023-07-29T14:13:15;24.40;99.90
50067;DHT22;35952;52.524;13.340;2023-07-29T14:15:41;24.80;99.90
50067;DHT22;35952;52.524;13.340;2023-07-29T14:18:07;25.60;99.90
50067;DHT22;35952;52.524;13.340;2023-07-29T14:20:33;26.80;99.90
50067;DHT22;35952;52.524;13.340;2023-07-29T14:22:58;27.50;99.90
50067;DHT22;35952;52.524;13.340;2023-07-29T14:25:24;27.30;99.90
50067;DHT22;35952;52.524;13.340;2023-07-29T14:27:50;26.70;99.90
50067;DHT22;35952;52.524;13.340;2023-07-29T14:30:15;25.80;99.90
50067;DHT22;35952;52.524;13.340;2023-07-29T14:32:41;25.30;99.90
50067;DHT22;35952;52.524;13.340;2023-07-29T14:35:07;25.10;99.90
50067;DHT22;35952;52.524;13.340;2023-07-29T14:37:33;25.10;99.90
50067;DHT22;35952;52.524;13.340;2023-07-29T14:39:59;25.20;99.90
50067;DHT22;35952;52.524;13.340;2023-07-29T14:42:25;25.30;99.90
50067;DHT22;35952;52.524;13.340;2023-07-29T14:44:51;25.30;99.90
50067;DHT22;35952;52.524;13.340;2023-07-29T14:47:17;25.20;99.90
50067;DHT22;35952;52.524;13.340;2023-07-29T14:49:43;25.20;99.90
50067;DHT22;35952;52.524;13.340;2023-07-29T14:52:09;24.90;99.90
50067;DHT22;35952;52.524;13.340;2023-07-29T14:54:34;24.70;99.90
50067;DHT22;35952;52.524;13.340;2023-07-29T14:57:00;24.50;99.90
50067;DHT22;35952;52.524;13.340;2023-07-29T14:59:25;24.20;99.90
50067;DHT22;35952;52.524;13.340;2023-07-29T15:01:51;24.00;99.90
50067;DHT22;35952;52.524;13.340;2023-07-29T15:04:16;23.80;99.90
50067;DHT22;35952;52.524;13.340;2023-07-29T15:06:42;23.70;99.90
50067;DHT22;35952;52.524;13.340;2023-07-29T15:09:07;23.60;99.90
50067;DHT22;35952;52.524;13.340;2023-07-29T15:11:33;23.50;99.90
50067;DHT22;35952;52.524;13.340;2023-07-29T15:13:59;23.40;99.90
50067;DHT22;35952;52.524;13.340;2023-07-29T15:16:25;23.30;99.90
50067;DHT22;35952;52.524;13.340;2023-07-29T15:18:51;23.20;99.90
50067;DHT22;35952;52.524;13.340;2023-07-29T15:21:17;23.10;99.90
50067;DHT22;35952;52.524;13.340;2023-07-29T15:23:43;23.00;99.90
50067;DHT22;35952;52.524;13.340;2023-07-29T15:26:09;22.90;99.90
50067;DHT22;35952;52.524;13.340;2023-07-29T15:28:34;22.80;99.90
50067;DHT22;35952;52.524;13.340;2023-07-29T15:31:00;22.80;99.90
50067;DHT22;35952;52.524;13.340;2023-07-29T15:33:26;22.80;99.90